SSEC Globe Logo

Space Science and Engineering Center

Regional Terminal Forecasts

KMSN 221903Z 2219/2318 01005KT P6SM BKN015 FM222100 32004KT
     P6SM BKN025 FM230800 00000KT 1SM BR SCT150 FM231400
     00000KT 4SM BR SCT010 FM231600 VRB03KT P6SM SCT045=
KMKE 221905Z 2219/2324 07004KT P6SM SCT015 FM222100 06006KT
     P6SM FEW025 FM230800 VRB03KT 1SM BR FEW150 FM231000
     00000KT 1/2SM FG FEW008 FM231400 00000KT 2SM BR FEW015
     FM231600 16006KT P6SM SCT045=
KGRB 221736Z 2218/2318 VRB03KT P6SM SCT025 TEMPO 2218/2219
     BKN018 FM221900 VRB03KT P6SM SCT040 FM230000 23003KT
     P6SM FEW250 FM230900 VRB03KT 3SM BR SCT006 FM231300
     23004KT P6SM FEW250 FM231600 22006KT P6SM SCT040=
KAUW 221736Z 2218/2318 22004KT P6SM BKN035 FM222200 26005KT
     P6SM SCT050 FM230100 VRB03KT P6SM SCT250 FM230800
     VRB02KT 3SM BR SCT005 TEMPO 2309/2313 1SM BR FM231300
     00000KT P6SM SCT250 FM231600 22006KT P6SM SCT040=
KEAU 221731Z 2218/2318 VRB03KT P6SM SCT040 TEMPO 2218/2219
     BKN018 FM231500 17007KT P6SM SCT040 BKN150=
KLSE 221819Z 2218/2318 VRB04KT P6SM BKN019 FM222200 VRB03KT
     P6SM SCT025 BKN050 FM230100 VRB03KT P6SM SCT050
     FM230900 14003KT 4SM BR SCT003 TEMPO 2311/2313 1/2SM FG
     FM231400 15004KT P6SM SCT030 BKN070=
TAF KDBQ 221740Z 2218/2318 32005KT P6SM BKN025 FM230000
     VRB03KT P6SM SCT050 FM230900 10005KT 3SM BR SCT015
     FM231400 16005KT P6SM VCSH SCT030 BKN100=
TAF KRFD 221720Z 2218/2318 33007KT P6SM BKN022 FM222100
     33007KT P6SM SCT025 FM230100 05004KT P6SM SCT030
     FM230500 VRB02KT 3SM BR SCT003 BKN008 OVC012 TEMPO
     2308/2312 3/4SM BR OVC004 FM231400 VRB03KT P6SM FEW250=
KORD 221720Z 2218/2324 03009KT P6SM BKN018 OVC025 FM222100
     03008KT P6SM SCT025 FM222300 07006KT P6SM SCT035
     FM230500 VRB02KT 3SM BR SCT003 BKN008 OVC012 TEMPO
     2309/2312 1 1/2SM BR OVC006 FM231400 VRB03KT P6SM
     FEW250 FM231900 08008KT P6SM SCT200=